Time,TemperatureF,DewpointF,PressureIn,WindDirection,WindDirectionDegrees,WindSpeedMPH,WindSpeedGustMPH,Humidity,HourlyPrecipIn,Conditions,Clouds,dailyrainin,SoftwareType,DateUTC
2013-03-11 00:12:00,52.5,34.0,30.20,SE,130,1.0,3.0,49,0.00,,,0.00,weatherlink.com 1.10,2013-03-11 04:12:00,
2013-03-11 00:27:00,52.1,33.0,30.20,SE,130,1.0,3.0,48,0.00,,,0.00,weatherlink.com 1.10,2013-03-11 04:27:00,
2013-03-11 00:42:00,51.6,31.0,30.19,SE,130,1.0,2.0,46,0.00,,,0.00,weatherlink.com 1.10,2013-03-11 04:42:00,
2013-03-11 00:57:00,51.3,31.0,30.19,SE,130,3.0,3.0,46,0.00,,,0.00,weatherlink.com 1.10,2013-03-11 04:57:00,
2013-03-11 01:12:00,50.8,29.0,30.18,SE,130,0.0,3.0,44,0.00,,,0.00,weatherlink.com 1.10,2013-03-11 05:12:00,
2013-03-11 01:27:00,50.0,29.0,30.18,SE,130,0.0,2.0,45,0.00,,,0.00,weatherlink.com 1.10,2013-03-11 05:27:00,
2013-03-11 01:42:00,49.1,28.0,30.18,SE,130,0.0,1.0,45,0.00,,,0.00,weatherlink.com 1.10,2013-03-11 05:42:00,
2013-03-11 01:57:00,47.9,30.0,30.18,SE,130,0.0,0.0,50,0.00,,,0.00,weatherlink.com 1.10,2013-03-11 05:57:00,
2013-03-11 02:12:00,46.7,30.0,30.18,SE,130,0.0,0.0,52,0.00,,,0.00,weatherlink.com 1.10,2013-03-11 06:12:00,
2013-03-11 02:27:00,45.6,29.0,30.17,SE,130,0.0,0.0,52,0.00,,,0.00,weatherlink.com 1.10,2013-03-11 06:27:00,
2013-03-11 02:43:00,44.7,30.0,30.17,SE,130,0.0,0.0,57,0.00,,,0.00,weatherlink.com 1.10,2013-03-11 06:43:00,
2013-03-11 02:58:00,44.0,27.0,30.17,SE,130,0.0,0.0,51,0.00,,,0.00,weatherlink.com 1.10,2013-03-11 06:58:00,
2013-03-11 03:13:00,44.3,26.0,30.16,SE,130,0.0,1.0,49,0.00,,,0.00,weatherlink.com 1.10,2013-03-11 07:13:00,
2013-03-11 03:28:00,44.3,28.0,30.15,SE,130,0.0,0.0,53,0.00,,,0.00,weatherlink.com 1.10,2013-03-11 07:28:00,
2013-03-11 03:43:00,43.7,29.0,30.15,SE,130,0.0,0.0,56,0.00,,,0.00,weatherlink.com 1.10,2013-03-11 07:43:00,
2013-03-11 03:58:00,43.2,28.0,30.14,SE,130,0.0,0.0,55,0.00,,,0.00,weatherlink.com 1.10,2013-03-11 07:58:00,
2013-03-11 04:13:00,42.7,32.0,30.13,SE,130,0.0,0.0,65,0.00,,,0.00,weatherlink.com 1.10,2013-03-11 08:13:00,
2013-03-11 04:28:00,42.1,30.0,30.13,SE,130,0.0,0.0,63,0.00,,,0.00,weatherlink.com 1.10,2013-03-11 08:28:00,
2013-03-11 04:43:00,41.6,29.0,30.12,SE,130,0.0,0.0,62,0.00,,,0.00,weatherlink.com 1.10,2013-03-11 08:43:00,
2013-03-11 04:58:00,41.2,30.0,30.12,SE,130,0.0,0.0,65,0.00,,,0.00,weatherlink.com 1.10,2013-03-11 08:58:00,
2013-03-11 05:13:00,40.8,30.0,30.12,SE,130,0.0,0.0,65,0.00,,,0.00,weatherlink.com 1.10,2013-03-11 09:13:00,
2013-03-11 05:28:00,40.7,29.0,30.12,SE,130,0.0,0.0,63,0.00,,,0.00,weatherlink.com 1.10,2013-03-11 09:28:00,
2013-03-11 05:43:00,41.2,29.0,30.11,SE,130,0.0,0.0,63,0.00,,,0.00,weatherlink.com 1.10,2013-03-11 09:43:00,
2013-03-11 05:58:00,42.2,27.0,30.11,SE,130,0.0,0.0,56,0.00,,,0.00,weatherlink.com 1.10,2013-03-11 09:58:00,
2013-03-11 06:13:00,43.1,27.0,30.12,SE,130,0.0,1.0,54,0.00,,,0.00,weatherlink.com 1.10,2013-03-11 10:13:00,
2013-03-11 06:28:00,43.1,29.0,30.11,SE,130,0.0,0.0,57,0.00,,,0.00,weatherlink.com 1.10,2013-03-11 10:28:00,
2013-03-11 06:43:00,42.7,27.0,30.12,SE,130,0.0,1.0,55,0.00,,,0.00,weatherlink.com 1.10,2013-03-11 10:43:00,
2013-03-11 06:58:00,42.8,27.0,30.11,SE,130,0.0,1.0,54,0.00,,,0.00,weatherlink.com 1.10,2013-03-11 10:58:00,
2013-03-11 07:13:00,42.8,30.0,30.11,SE,130,0.0,1.0,60,0.00,,,0.00,weatherlink.com 1.10,2013-03-11 11:13:00,
2013-03-11 07:28:00,42.7,29.0,30.11,SE,130,0.0,1.0,59,0.00,,,0.00,weatherlink.com 1.10,2013-03-11 11:28:00,
2013-03-11 07:43:00,42.5,30.0,30.12,SE,130,0.0,0.0,62,0.00,,,0.00,weatherlink.com 1.10,2013-03-11 11:43:00,
2013-03-11 07:58:00,42.3,32.0,30.11,SE,130,0.0,0.0,66,0.00,,,0.00,weatherlink.com 1.10,2013-03-11 11:58:00,
2013-03-11 08:13:00,42.1,33.0,30.11,SW,223,0.0,1.0,69,0.00,,,0.00,weatherlink.com 1.10,2013-03-11 12:13:00,
2013-03-11 08:28:00,42.8,34.0,30.10,SW,223,0.0,1.0,70,0.00,,,0.00,weatherlink.com 1.10,2013-03-11 12:28:00,
2013-03-11 08:43:00,44.2,35.0,30.11,SW,223,0.0,2.0,71,0.00,,,0.00,weatherlink.com 1.10,2013-03-11 12:43:00,
2013-03-11 08:58:00,45.4,36.0,30.11,SW,223,0.0,1.0,71,0.00,,,0.00,weatherlink.com 1.10,2013-03-11 12:58:00,
2013-03-11 09:13:00,46.7,38.0,30.11,SW,223,0.0,1.0,71,0.00,,,0.00,weatherlink.com 1.10,2013-03-11 13:13:00,
2013-03-11 09:28:00,47.7,40.0,30.10,SW,223,0.0,2.0,74,0.00,,,0.00,weatherlink.com 1.10,2013-03-11 13:28:00,
2013-03-11 09:43:00,49.1,42.0,30.12,SE,140,2.0,3.0,76,0.00,,,0.00,weatherlink.com 1.10,2013-03-11 13:43:00,
2013-03-11 09:58:00,50.4,44.0,30.11,ESE,115,1.0,3.0,79,0.00,,,0.00,weatherlink.com 1.10,2013-03-11 13:58:00,
2013-03-11 10:13:00,51.3,45.0,30.11,SE,134,1.0,3.0,80,0.00,,,0.00,weatherlink.com 1.10,2013-03-11 14:13:00,
2013-03-11 10:28:00,52.3,47.0,30.11,SE,128,1.0,2.0,81,0.00,,,0.00,weatherlink.com 1.10,2013-03-11 14:28:00,
2013-03-11 10:44:00,53.9,49.0,30.10,ESE,121,1.0,3.0,82,0.00,,,0.00,weatherlink.com 1.10,2013-03-11 14:44:00,
2013-03-11 10:59:00,55.5,50.0,30.09,SE,128,2.0,5.0,83,0.00,,,0.00,weatherlink.com 1.10,2013-03-11 14:59:00,
2013-03-11 11:14:00,56.8,52.0,30.09,SE,127,3.0,6.0,83,0.00,,,0.00,weatherlink.com 1.10,2013-03-11 15:14:00,
2013-03-11 11:29:00,58.1,52.0,30.09,SE,126,4.0,5.0,80,0.00,,,0.00,weatherlink.com 1.10,2013-03-11 15:29:00,
2013-03-11 11:44:00,59.1,53.0,30.08,ESE,106,3.0,7.0,79,0.00,,,0.00,weatherlink.com 1.10,2013-03-11 15:44:00,
2013-03-11 11:59:00,61.1,54.0,30.07,SE,133,4.0,7.0,76,0.00,,,0.00,weatherlink.com 1.10,2013-03-11 15:59:00,
2013-03-11 12:14:00,62.8,54.0,30.07,SE,130,5.0,7.0,73,0.00,,,0.00,weatherlink.com 1.10,2013-03-11 16:14:00,
2013-03-11 12:29:00,63.5,54.0,30.06,SE,128,8.0,13.0,72,0.00,,,0.00,weatherlink.com 1.10,2013-03-11 16:29:00,
2013-03-11 12:44:00,65.1,55.0,30.06,SSE,152,3.0,10.0,69,0.00,,,0.00,weatherlink.com 1.10,2013-03-11 16:44:00,
2013-03-11 12:59:00,65.6,55.0,30.05,ENE,61,5.0,11.0,68,0.00,,,0.00,weatherlink.com 1.10,2013-03-11 16:59:00,
2013-03-11 13:14:00,65.6,54.0,30.04,ESE,123,4.0,9.0,66,0.00,,,0.00,weatherlink.com 1.10,2013-03-11 17:14:00,
2013-03-11 13:29:00,66.6,54.0,30.04,SE,124,4.0,12.0,65,0.00,,,0.00,weatherlink.com 1.10,2013-03-11 17:29:00,
2013-03-11 13:44:00,67.7,54.0,30.02,SE,140,5.0,9.0,61,0.00,,,0.00,weatherlink.com 1.10,2013-03-11 17:44:00,
2013-03-11 13:59:00,67.3,53.0,30.00,SE,126,7.0,14.0,60,0.00,,,0.00,weatherlink.com 1.10,2013-03-11 17:59:00,
2013-03-11 14:14:00,67.6,52.0,30.00,ESE,117,11.0,12.0,58,0.00,,,0.00,weatherlink.com 1.10,2013-03-11 18:14:00,
2013-03-11 14:29:00,67.4,51.0,29.99,NNE,19,2.0,14.0,57,0.00,,,0.00,weatherlink.com 1.10,2013-03-11 18:29:00,
2013-03-11 14:44:00,68.7,51.0,29.98,SE,138,9.0,13.0,54,0.00,,,0.00,weatherlink.com 1.10,2013-03-11 18:44:00,
2013-03-11 14:59:00,67.4,51.0,29.97,SE,128,2.0,17.0,56,0.00,,,0.00,weatherlink.com 1.10,2013-03-11 18:59:00,
2013-03-11 15:14:00,68.1,53.0,29.96,ENE,71,2.0,14.0,58,0.00,,,0.00,weatherlink.com 1.10,2013-03-11 19:14:00,
2013-03-11 15:29:00,68.0,52.0,29.94,ENE,74,3.0,12.0,56,0.00,,,0.00,weatherlink.com 1.10,2013-03-11 19:29:00,
2013-03-11 16:00:00,68.4,52.0,29.92,ESE,116,4.0,11.0,56,0.00,,,0.00,weatherlink.com 1.10,2013-03-11 20:00:00,
2013-03-11 16:15:00,69.1,52.0,29.91,SE,126,4.0,13.0,55,0.00,,,0.00,weatherlink.com 1.10,2013-03-11 20:15:00,
2013-03-11 16:30:00,68.5,52.0,29.91,SE,130,3.0,12.0,56,0.00,,,0.00,weatherlink.com 1.10,2013-03-11 20:30:00,
2013-03-11 16:45:00,67.7,51.0,29.93,ESE,122,4.0,13.0,56,0.00,,,0.00,weatherlink.com 1.10,2013-03-11 20:45:00,
2013-03-11 17:00:00,67.8,51.0,29.91,SE,127,4.0,8.0,56,0.00,,,0.00,weatherlink.com 1.10,2013-03-11 21:00:00,
2013-03-11 17:15:00,67.7,51.0,29.91,SE,140,4.0,9.0,56,0.00,,,0.00,weatherlink.com 1.10,2013-03-11 21:15:00,
2013-03-11 17:30:00,67.4,51.0,29.91,SE,134,4.0,11.0,55,0.00,,,0.00,weatherlink.com 1.10,2013-03-11 21:30:00,
2013-03-11 17:45:00,67.2,50.0,29.88,SE,136,8.0,15.0,55,0.00,,,0.00,weatherlink.com 1.10,2013-03-11 21:45:00,
2013-03-11 18:00:00,67.1,51.0,29.89,SE,134,6.0,11.0,56,0.00,,,0.00,weatherlink.com 1.10,2013-03-11 22:00:00,
2013-03-11 18:15:00,66.7,51.0,29.87,ESE,109,3.0,9.0,57,0.00,,,0.00,weatherlink.com 1.10,2013-03-11 22:15:00,
2013-03-11 18:30:00,66.1,52.0,29.87,ESE,123,11.0,13.0,61,0.00,,,0.00,weatherlink.com 1.10,2013-03-11 22:30:00,
2013-03-11 18:45:00,65.6,52.0,29.88,SE,135,4.0,8.0,62,0.00,,,0.00,weatherlink.com 1.10,2013-03-11 22:45:00,
2013-03-11 19:00:00,65.2,53.0,29.89,SE,124,4.0,6.0,64,0.00,,,0.00,weatherlink.com 1.10,2013-03-11 23:00:00,
2013-03-11 19:15:00,65.0,53.0,29.89,SE,139,1.0,7.0,65,0.00,,,0.00,weatherlink.com 1.10,2013-03-11 23:15:00,
2013-03-11 19:30:00,64.7,53.0,29.89,SE,142,2.0,7.0,66,0.00,,,0.00,weatherlink.com 1.10,2013-03-11 23:30:00,
2013-03-11 19:44:00,64.4,53.0,29.88,SE,130,4.0,7.0,66,0.00,,,0.00,weatherlink.com 1.10,2013-03-11 23:44:00,
2013-03-11 20:00:00,64.3,53.0,29.90,SE,132,3.0,7.0,66,0.00,,,0.00,weatherlink.com 1.10,2013-03-12 00:00:00,
2013-03-11 20:15:00,64.1,52.0,29.90,SE,130,4.0,6.0,66,0.00,,,0.00,weatherlink.com 1.10,2013-03-12 00:15:00,
2013-03-11 20:30:00,63.9,53.0,29.89,SE,140,3.0,8.0,67,0.00,,,0.00,weatherlink.com 1.10,2013-03-12 00:30:00,
2013-03-11 20:45:00,63.7,52.0,29.90,SE,133,2.0,9.0,67,0.00,,,0.00,weatherlink.com 1.10,2013-03-12 00:45:00,
2013-03-11 21:00:00,63.2,53.0,29.89,ESE,119,4.0,7.0,70,0.00,,,0.00,weatherlink.com 1.10,2013-03-12 01:00:00,
2013-03-11 21:15:00,62.5,54.0,29.88,SE,137,5.0,10.0,73,0.00,,,0.00,weatherlink.com 1.10,2013-03-12 01:15:00,
2013-03-11 21:30:00,62.0,54.0,29.88,ENE,65,5.0,8.0,75,0.00,,,0.00,weatherlink.com 1.10,2013-03-12 01:30:00,
2013-03-11 21:45:00,61.7,54.0,29.88,SSE,147,7.0,7.0,76,0.00,,,0.00,weatherlink.com 1.10,2013-03-12 01:45:00,
2013-03-11 22:00:00,61.2,55.0,29.88,SE,130,5.0,7.0,80,0.00,,,0.00,weatherlink.com 1.10,2013-03-12 02:00:00,
2013-03-11 22:15:00,60.0,55.0,29.86,East,92,3.0,7.0,84,0.00,,,0.00,weatherlink.com 1.10,2013-03-12 02:15:00,
2013-03-11 22:30:00,59.4,55.0,29.88,ESE,119,3.0,8.0,86,0.00,,,0.00,weatherlink.com 1.10,2013-03-12 02:30:00,
2013-03-11 22:45:00,59.0,56.0,29.86,SE,140,3.0,5.0,88,0.00,,,0.00,weatherlink.com 1.10,2013-03-12 02:45:00,
2013-03-11 23:00:00,58.6,55.0,29.87,SE,135,1.0,4.0,89,0.00,,,0.00,weatherlink.com 1.10,2013-03-12 03:00:00,
2013-03-11 23:15:00,58.3,56.0,29.87,SE,135,2.0,5.0,90,0.00,,,0.00,weatherlink.com 1.10,2013-03-12 03:15:00,
2013-03-11 23:30:00,57.9,56.0,29.86,SE,127,1.0,4.0,92,0.00,,,0.00,weatherlink.com 1.10,2013-03-12 03:30:00,
2013-03-11 23:45:00,57.6,56.0,29.85,SE,126,1.0,5.0,93,0.00,,,0.00,weatherlink.com 1.10,2013-03-12 03:45:00,